New Orleans, Louisiana
Traffic Map
Current Weather Conditions
New Orleans, Louisiana
Clear
Clear
80°
Feels Like: 85°
Wind Chill: 80° Ceiling: Unl
Heat Index: 85° Visibility: 8mi
Dew Point: 75° Wind: 6mph
Humidity: 85% Direction: 210° (SSW)
Pressure: 29.93in Gusts: 0mph
Raw Report DataKNEW 211153Z AUTO 21005KT 8SM CLR 27/24 A2993 RMK AO2 SLP129 T02670239 10278 20261 53004
Traffic Incident Summary
Active as of:
Severity:
Category:
InformationThere was an issue retrieving the traffic information for this location. Please try a different location or try again shortly.
Advertisements